Time;durP1;ratioP1;P1;durP2;ratioP2;P2;SDS_P1;SDS_P2;PMS_P1;PMS_P2;Temp;Humidity;BMP_temperature;BMP_pressure;BME280_temperature;BME280_humidity;BME280_pressure;Samples;Min_cycle;Max_cycle;Signal;HPM_P1;HPM_P2
2021/04/16 00:00:54;;;;;;;10.63;9.40;;;;;;;10.78;73.03;99986.25;1763070;80;21136;-40
2021/04/16 00:03:23;;;;;;;11.18;9.08;;;;;;;10.76;73.17;99984.16;1755887;80;21597;-38
2021/04/16 00:05:52;;;;;;;11.20;9.28;;;;;;;10.74;73.32;99986.95;1744099;81;22035;-41
2021/04/16 00:08:24;;;;;;;12.45;9.08;;;;;;;10.73;73.44;99987.89;1750777;81;21148;-38
2021/04/16 00:11:00;;;;;;;10.93;8.70;;;;;;;10.72;73.54;99986.67;1709291;82;21147;-41
2021/04/16 00:13:29;;;;;;;8.73;7.53;;;;;;;10.71;73.61;99988.49;1752768;80;21135;-41
2021/04/16 00:15:58;;;;;;;9.33;8.33;;;;;;;10.73;73.70;99989.70;1748274;81;21142;-44
2021/04/16 00:18:28;;;;;;;8.93;7.58;;;;;;;10.76;73.78;99986.37;1746403;81;21158;-43
2021/04/16 00:20:58;;;;;;;9.30;7.55;;;;;;;10.76;73.74;99986.83;1753816;81;21612;-42
2021/04/16 00:23:26;;;;;;;8.93;7.47;;;;;;;10.76;73.70;99983.70;1753541;80;21539;-39
2021/04/16 00:25:55;;;;;;;9.50;7.87;;;;;;;10.75;73.69;99985.98;1753234;80;21138;-39
2021/04/16 00:28:24;;;;;;;9.13;7.55;;;;;;;10.73;73.73;99987.89;1751250;81;21562;-40
2021/04/16 00:31:01;;;;;;;7.90;7.10;;;;;;;10.71;73.83;99992.95;1751719;80;21599;-40
2021/04/16 00:33:30;;;;;;;8.80;7.55;;;;;;;10.66;73.85;99989.28;1756101;80;21143;-41
2021/04/16 00:35:59;;;;;;;9.43;6.62;;;;;;;10.65;73.85;99989.37;1750656;81;21137;-41
2021/04/16 00:38:29;;;;;;;7.95;5.97;;;;;;;10.66;73.93;99997.28;1756592;81;21135;-42
2021/04/16 00:40:59;;;;;;;9.13;6.35;;;;;;;10.62;73.91;99987.77;1753528;81;21632;-40
2021/04/16 00:43:31;;;;;;;6.70;5.58;;;;;;;10.56;74.00;99985.03;1754457;81;21484;-45
2021/04/16 00:46:06;;;;;;;;;;;;;;;10.56;74.09;99986.84;1753514;81;21149;-40
2021/04/16 00:48:35;;;;;;;7.50;5.70;;;;;;;10.55;74.13;99989.12;1684423;82;20337;-41
2021/04/16 00:51:06;;;;;;;7.65;5.37;;;;;;;10.51;74.22;99985.81;1668437;83;21615;-53
2021/04/16 00:53:34;;;;;;;6.65;5.90;;;;;;;10.48;74.32;99987.36;1685699;82;21189;-40
2021/04/16 00:56:03;;;;;;;5.97;4.62;;;;;;;10.51;74.38;99985.81;1693112;83;21137;-40
2021/04/16 00:58:32;;;;;;;6.08;5.42;;;;;;;10.52;74.37;99985.33;1690320;83;21149;-38
2021/04/16 01:01:01;;;;;;;7.33;5.42;;;;;;;10.53;74.42;99981.24;1690475;83;21149;-41
2021/04/16 01:03:29;;;;;;;6.45;5.62;;;;;;;10.56;74.41;99992.19;1687240;83;21266;-40
2021/04/16 01:06:03;;;;;;;7.00;5.20;;;;;;;10.57;74.38;99991.21;1687105;82;21958;-41
2021/04/16 01:08:33;;;;;;;6.12;5.17;;;;;;;10.57;74.39;99992.06;1687472;83;21165;-43
2021/04/16 01:11:01;;;;;;;5.35;4.85;;;;;;;10.56;74.34;99989.03;1688962;83;21181;-42
2021/04/16 01:13:29;;;;;;;5.45;4.35;;;;;;;10.55;74.36;99989.97;1688655;83;21335;-42
2021/04/16 01:16:02;;;;;;;5.15;3.98;;;;;;;10.55;74.36;99987.30;1689410;83;21193;-40
2021/04/16 01:18:34;;;;;;;5.78;4.33;;;;;;;10.55;74.31;99988.63;1687347;83;21179;-41
2021/04/16 01:21:17;;;;;;;5.60;4.28;;;;;;;10.59;74.25;99986.64;1766289;79;23255;-43
2021/04/16 01:24:09;;;;;;;8.00;4.40;;;;;;;10.56;74.16;99989.03;1751494;80;21116;-42
2021/04/16 01:26:38;;;;;;;7.75;4.50;;;;;;;10.57;74.03;99986.73;1754417;80;21113;-42
2021/04/16 01:29:06;;;;;;;6.00;4.42;;;;;;;10.59;73.87;99991.48;1751553;80;21168;-41
2021/04/16 01:31:35;;;;;;;4.70;3.77;;;;;;;10.54;73.71;99984.75;1756801;80;21561;-38
2021/04/16 01:34:05;;;;;;;3.72;2.98;;;;;;;10.49;73.71;99985.05;1757059;80;21128;-39
2021/04/16 01:36:34;;;;;;;7.70;3.30;;;;;;;10.47;73.71;99980.78;1757253;80;21153;-43
2021/04/16 01:39:03;;;;;;;4.05;3.10;;;;;;;10.47;73.71;99983.45;1757454;80;21113;-43
2021/04/16 01:41:31;;;;;;;5.78;3.75;;;;;;;10.45;73.72;99984.87;1727221;81;21148;-42
2021/04/16 01:44:04;;;;;;;4.62;3.58;;;;;;;10.43;73.83;99984.59;1724302;81;21165;-39
2021/04/16 01:47:05;;;;;;;4.60;3.33;;;;;;;10.35;73.91;99980.61;1718430;81;21180;-41
2021/04/16 01:49:43;;;;;;;4.78;4.28;;;;;;;10.31;74.04;99977.79;1725425;81;21136;-43
2021/04/16 01:52:25;;;;;;;4.90;3.75;;;;;;;10.30;74.23;99982.72;1706404;83;21114;-42
2021/04/16 01:54:53;;;;;;;4.33;3.87;;;;;;;10.25;74.34;99978.63;1715097;82;21127;-43
2021/04/16 01:57:31;;;;;;;4.53;3.85;;;;;;;10.17;74.54;99973.31;1705217;82;21257;-41
2021/04/16 01:59:59;;;;;;;5.60;4.50;;;;;;;10.15;74.65;99976.58;1704462;82;21098;-43
2021/04/16 02:02:32;;;;;;;5.95;4.22;;;;;;;10.13;74.83;99973.60;1724724;81;21152;-41
2021/04/16 02:05:00;;;;;;;4.85;4.00;;;;;;;10.11;74.92;99976.87;1705813;82;21589;-45
2021/04/16 02:07:30;;;;;;;4.92;4.30;;;;;;;10.09;75.04;99972.11;1701006;82;21157;-47
2021/04/16 02:09:57;;;;;;;5.97;3.47;;;;;;;10.08;75.07;99972.59;1702530;82;21137;-44
2021/04/16 02:12:25;;;;;;;4.70;3.83;;;;;;;10.08;75.09;99975.70;1724259;81;21549;-43
2021/04/16 02:14:54;;;;;;;4.00;3.50;;;;;;;10.07;75.10;99973.53;1713414;81;21156;-43
2021/04/16 02:17:26;;;;;;;5.25;3.60;;;;;;;10.11;75.09;99980.38;1687099;83;21153;-42
2021/04/16 02:19:58;;;;;;;3.80;3.25;;;;;;;10.14;75.03;99976.17;1715070;81;21608;-44
2021/04/16 02:22:27;;;;;;;4.80;3.45;;;;;;;10.17;75.00;99976.45;1714086;82;21135;-41
2021/04/16 02:24:55;;;;;;;4.33;3.45;;;;;;;10.21;74.90;99977.13;1746465;80;21124;-45
2021/04/16 02:27:25;;;;;;;3.70;3.08;;;;;;;10.21;74.81;99975.80;1752091;80;21121;-43
2021/04/16 02:29:53;;;;;;;5.20;4.17;;;;;;;10.23;74.79;99978.74;1748588;80;21125;-45
2021/04/16 02:32:21;;;;;;;6.67;4.17;;;;;;;10.20;74.80;99974.92;1748334;80;21153;-42
2021/04/16 02:34:49;;;;;;;4.70;4.20;;;;;;;10.15;74.87;99977.91;1711662;82;21174;-44
2021/04/16 02:37:19;;;;;;;5.83;4.60;;;;;;;10.12;74.93;99978.08;1705592;82;21149;-43
2021/04/16 02:39:48;;;;;;;4.85;4.00;;;;;;;10.12;74.99;99979.41;1750095;80;21133;-44
2021/04/16 02:42:15;;;;;;;4.58;4.08;;;;;;;10.11;75.07;99979.53;1743818;80;21157;-43
2021/04/16 02:44:43;;;;;;;6.30;4.17;;;;;;;10.04;75.13;99973.73;1746879;80;21675;-42
2021/04/16 02:47:11;;;;;;;4.15;3.58;;;;;;;9.97;75.21;99975.07;1745015;80;21129;-44
2021/04/16 02:49:39;;;;;;;4.17;3.52;;;;;;;9.99;75.39;99976.31;1746146;80;21152;-44
2021/04/16 02:52:07;;;;;;;4.70;3.95;;;;;;;9.98;75.46;99975.47;1743564;80;21561;-42
2021/04/16 02:54:34;;;;;;;4.60;3.95;;;;;;;9.97;75.50;99978.58;1713979;82;21146;-41
2021/04/16 02:57:04;;;;;;;4.83;3.87;;;;;;;9.94;75.52;99981.45;1712648;82;21569;-39
2021/04/16 02:59:32;;;;;;;5.70;4.40;;;;;;;9.93;75.62;99978.91;1714281;82;21570;-42
2021/04/16 03:02:00;;;;;;;4.78;3.75;;;;;;;9.91;75.61;99980.80;1746624;80;21148;-41
2021/04/16 03:04:27;;;;;;;5.65;4.97;;;;;;;9.87;75.69;99980.13;1714015;82;21165;-43
2021/04/16 03:06:55;;;;;;;5.12;4.55;;;;;;;9.85;75.81;99978.52;1684798;83;21163;-42
2021/04/16 03:09:23;;;;;;;5.78;4.53;;;;;;;9.86;76.14;99981.09;1715753;82;21557;-42
2021/04/16 03:11:50;;;;;;;4.30;3.72;;;;;;;9.87;76.04;99977.94;1715152;82;21169;-42
2021/04/16 03:14:19;;;;;;;5.30;3.55;;;;;;;9.84;75.97;99982.14;1746800;80;21144;-40
2021/04/16 03:16:49;;;;;;;5.00;4.12;;;;;;;9.81;76.00;99979.67;1748933;80;21141;-44
2021/04/16 03:19:19;;;;;;;4.92;3.67;;;;;;;9.79;76.03;99976.25;1748653;80;21635;-46
2021/04/16 03:21:47;;;;;;;5.75;3.95;;;;;;;9.77;76.12;99979.00;1679255;83;21192;-45
2021/04/16 03:24:14;;;;;;;5.42;4.08;;;;;;;9.78;76.08;99978.06;1712281;82;21145;-39
2021/04/16 03:26:42;;;;;;;3.72;3.02;;;;;;;9.79;76.07;99974.44;1707963;82;21170;-39
2021/04/16 03:29:09;;;;;;;5.15;3.98;;;;;;;9.81;76.02;99976.53;1709269;82;21881;-43
2021/04/16 03:31:38;;;;;;;4.50;3.02;;;;;;;9.83;75.89;99980.44;1685229;83;21183;-40
2021/04/16 03:34:08;;;;;;;4.37;3.22;;;;;;;9.82;75.83;99977.38;1709719;82;21434;-38
2021/04/16 03:36:35;;;;;;;5.05;3.72;;;;;;;9.79;75.77;99981.09;1712193;82;21125;-43
2021/04/16 03:39:06;;;;;;;5.53;3.47;;;;;;;9.79;75.73;99978.91;1748221;80;21101;-45
2021/04/16 03:41:33;;;;;;;4.12;3.30;;;;;;;9.79;75.75;99979.77;1747937;80;21153;-44
2021/04/16 03:44:01;;;;;;;4.20;3.30;;;;;;;9.81;75.74;99985.00;1750886;80;21152;-37
2021/04/16 03:46:29;;;;;;;3.55;3.02;;;;;;;9.83;75.73;99984.44;1715930;82;21625;-44
2021/04/16 03:48:57;;;;;;;4.60;3.83;;;;;;;9.81;75.75;99981.01;1713634;82;21126;-37
2021/04/16 03:51:25;;;;;;;3.80;3.10;;;;;;;9.84;75.72;99990.12;1711309;82;21542;-42
2021/04/16 03:53:53;;;;;;;3.77;3.02;;;;;;;9.87;75.67;99989.45;1750949;80;21110;-41
2021/04/16 03:56:21;;;;;;;4.10;3.05;;;;;;;9.90;75.55;99991.94;1715383;82;21114;-41
2021/04/16 03:58:49;;;;;;;5.65;3.62;;;;;;;9.95;75.43;99992.95;1750416;80;21116;-44
2021/04/16 04:01:17;;;;;;;4.90;3.83;;;;;;;10.00;75.33;99994.84;1715823;82;21506;-40
2021/04/16 04:03:45;;;;;;;5.08;4.58;;;;;;;10.03;75.15;99996.01;1749797;80;21132;-44
2021/04/16 04:06:14;;;;;;;5.75;4.75;;;;;;;10.05;74.97;99993.23;1744400;80;21136;-41
2021/04/16 04:08:42;;;;;;;6.22;5.62;;;;;;;10.08;74.86;100001.02;1747796;80;21106;-41
2021/04/16 04:11:10;;;;;;;6.80;5.37;;;;;;;10.10;74.78;100003.11;1714269;82;21154;-49
2021/04/16 04:13:39;;;;;;;5.55;4.15;;;;;;;10.10;74.73;99999.96;1714829;82;21180;-44
2021/04/16 04:16:08;;;;;;;5.65;3.83;;;;;;;10.13;74.60;99997.12;1719343;82;21137;-43
2021/04/16 04:18:36;;;;;;;4.28;3.33;;;;;;;10.15;74.40;100000.55;1712084;82;21149;-43
2021/04/16 04:21:04;;;;;;;5.65;3.35;;;;;;;10.16;74.31;100004.92;1718420;82;21183;-41
2021/04/16 04:23:34;;;;;;;4.65;3.83;;;;;;;10.16;74.24;99998.26;1712707;82;21164;-40
2021/04/16 04:26:03;;;;;;;5.45;4.03;;;;;;;10.19;74.17;100009.19;1740320;80;21122;-40
2021/04/16 04:28:31;;;;;;;5.60;3.65;;;;;;;10.18;74.07;100006.16;1719687;80;21113;-43
2021/04/16 04:30:58;;;;;;;3.52;2.75;;;;;;;10.16;74.16;100006.73;1711559;82;21150;-44
2021/04/16 04:33:26;;;;;;;3.58;2.72;;;;;;;10.16;74.40;100003.58;1667711;84;21169;-41
2021/04/16 04:35:55;;;;;;;4.45;3.12;;;;;;;10.15;74.62;100004.55;1684595;83;21167;-41
2021/04/16 04:38:23;;;;;;;5.28;3.55;;;;;;;10.15;74.78;100009.87;1707594;82;21119;-41
2021/04/16 04:40:52;;;;;;;6.55;4.35;;;;;;;10.14;75.03;100011.30;1713312;82;21605;-42
2021/04/16 04:43:20;;;;;;;6.78;3.72;;;;;;;10.11;75.16;100009.69;1745882;80;21664;-42
2021/04/16 04:45:48;;;;;;;5.95;3.77;;;;;;;10.11;75.36;100015.50;1743980;80;21154;-40
2021/04/16 04:48:16;;;;;;;8.78;4.03;;;;;;;10.11;75.55;100011.02;1741791;80;21114;-43
2021/04/16 04:50:43;;;;;;;4.03;3.15;;;;;;;10.08;75.72;100009.00;1747067;80;21142;-42
2021/04/16 04:53:11;;;;;;;3.92;3.05;;;;;;;10.05;75.92;100008.73;1750418;80;21157;-44
2021/04/16 04:55:39;;;;;;;6.42;3.40;;;;;;;10.05;76.15;100003.40;1743911;80;21173;-42
2021/04/16 04:58:06;;;;;;;4.50;3.08;;;;;;;10.04;76.26;100009.69;1745385;80;21171;-45
2021/04/16 05:00:34;;;;;;;4.25;3.45;;;;;;;10.04;76.36;100003.03;1747982;80;21119;-44
2021/04/16 05:03:01;;;;;;;4.12;3.20;;;;;;;10.04;76.51;100007.52;1710838;82;21124;-44
2021/04/16 05:05:29;;;;;;;4.50;3.05;;;;;;;10.03;76.65;100006.66;1743980;80;21134;-45
2021/04/16 05:07:57;;;;;;;4.80;3.75;;;;;;;10.03;76.81;100007.11;1709212;82;21152;-40
2021/04/16 05:10:25;;;;;;;3.67;3.08;;;;;;;10.03;76.97;100006.66;1693598;83;21151;-41
2021/04/16 05:12:53;;;;;;;5.37;3.55;;;;;;;10.03;76.98;100000.45;1693538;83;21356;-44
2021/04/16 05:15:21;;;;;;;5.50;4.12;;;;;;;10.03;77.07;100004.00;1689579;83;21163;-45
2021/04/16 05:17:49;;;;;;;6.33;4.42;;;;;;;10.03;77.14;100004.00;1712781;82;21105;-41
2021/04/16 05:20:17;;;;;;;5.87;4.90;;;;;;;10.06;77.38;100010.45;1747208;80;21847;-43
2021/04/16 05:22:45;;;;;;;5.47;3.67;;;;;;;10.09;77.62;100010.73;1713476;82;21991;-39
2021/04/16 05:25:13;;;;;;;5.33;4.83;;;;;;;10.14;77.83;100009.97;1742715;80;21588;-40
2021/04/16 05:27:40;;;;;;;6.35;4.45;;;;;;;10.16;78.00;100009.40;1744405;80;21322;-39
2021/04/16 05:30:09;;;;;;;4.62;3.77;;;;;;;10.18;78.18;100007.02;1710422;82;21478;-47
2021/04/16 05:32:37;;;;;;;5.28;4.00;;;;;;;10.18;78.22;100008.83;1709139;82;21146;-45
2021/04/16 05:35:07;;;;;;;4.78;3.83;;;;;;;10.17;78.17;100007.95;1710645;82;21167;-42
2021/04/16 05:37:37;;;;;;;5.22;3.77;;;;;;;10.18;78.22;100010.16;1707189;82;21159;-41
2021/04/16 05:40:55;;;;;;;4.83;4.10;;;;;;;10.21;78.33;100015.77;1721084;82;21112;-41
2021/04/16 05:44:26;;;;;;;4.90;3.72;;;;;;;10.25;78.39;100007.94;1791881;78;27865;-42
2021/04/16 05:46:54;;;;;;;6.20;4.12;;;;;;;10.19;78.38;100009.19;1724858;81;21170;-44
2021/04/16 05:49:24;;;;;;;5.87;4.65;;;;;;;10.18;78.34;100011.49;1715632;81;21154;-45
2021/04/16 05:51:55;;;;;;;5.67;4.00;;;;;;;10.17;78.32;100008.43;1726383;81;21235;-42
2021/04/16 05:54:22;;;;;;;5.30;4.47;;;;;;;10.16;78.33;100012.91;1704650;81;21165;-44
2021/04/16 05:56:50;;;;;;;6.50;4.90;;;;;;;10.15;78.38;100015.66;1718378;81;21332;-47
2021/04/16 05:59:17;;;;;;;6.30;4.80;;;;;;;10.13;78.43;100010.45;1717526;81;21172;-55
2021/04/16 06:01:45;;;;;;;6.78;5.00;;;;;;;10.11;78.45;100011.02;1705187;82;21174;-45
2021/04/16 06:04:18;;;;;;;8.53;5.25;;;;;;;10.08;78.54;100011.22;1743433;80;21174;-46
2021/04/16 06:06:46;;;;;;;5.58;4.85;;;;;;;10.08;78.63;100012.55;1734807;81;21232;-44
2021/04/16 06:09:14;;;;;;;6.35;5.47;;;;;;;10.07;78.72;100012.16;1739495;81;21170;-40
2021/04/16 06:11:42;;;;;;;6.45;4.58;;;;;;;10.07;78.73;100009.97;1719718;82;21548;-43
2021/04/16 06:14:09;;;;;;;5.20;4.70;;;;;;;10.05;78.75;100011.39;1720190;82;21638;-42
2021/04/16 06:16:37;;;;;;;5.90;4.62;;;;;;;10.06;78.75;100009.61;1729822;81;21193;-43
2021/04/16 06:19:06;;;;;;;6.90;5.42;;;;;;;10.06;78.71;100011.79;1711114;82;21148;-45
2021/04/16 06:21:34;;;;;;;5.87;4.78;;;;;;;10.05;78.67;100012.72;1718337;81;21679;-43
2021/04/16 06:24:02;;;;;;;7.12;5.80;;;;;;;10.06;78.73;100014.45;1726553;81;21691;-45
2021/04/16 06:26:30;;;;;;;10.72;9.50;;;;;;;10.06;78.83;100013.13;1737062;80;21206;-45
2021/04/16 06:29:03;;;;;;;11.18;9.98;;;;;;;10.07;78.93;100016.15;1733329;81;21160;-47
2021/04/16 06:31:28;;;;;;;8.58;7.03;;;;;;;10.07;79.00;100016.15;1708872;81;21149;-46
2021/04/16 06:33:56;;;;;;;10.43;5.47;;;;;;;10.08;79.03;100021.00;1730811;80;21157;-46
2021/04/16 06:36:23;;;;;;;6.67;5.62;;;;;;;10.09;79.03;100024.06;1723388;81;21181;-42
2021/04/16 06:38:52;;;;;;;6.17;5.40;;;;;;;10.13;79.04;100024.22;1723008;81;22008;-45
2021/04/16 06:41:24;;;;;;;8.98;8.00;;;;;;;10.12;78.99;100023.37;1713485;81;21516;-43
2021/04/16 06:43:55;;;;;;;6.33;5.35;;;;;;;10.13;79.01;100029.09;1734536;80;21560;-43
2021/04/16 06:46:32;;;;;;;;;;;;;;;10.13;79.13;100027.77;1717397;81;21191;-46
2021/04/16 06:49:05;;;;;;;7.58;5.85;;;;;;;10.12;79.13;100028.70;1710690;81;20224;-46
2021/04/16 06:51:36;;;;;;;6.75;5.28;;;;;;;10.11;79.13;100032.33;1705784;81;21145;-44
2021/04/16 06:54:14;;;;;;;6.22;5.03;;;;;;;10.10;79.14;100032.42;1736155;80;21141;-40
2021/04/16 06:57:02;;;;;;;7.12;6.05;;;;;;;10.12;79.16;100031.36;1695904;82;21165;-45
2021/04/16 06:59:32;;;;;;;7.37;5.95;;;;;;;10.13;79.35;100034.88;1715470;82;21165;-44
2021/04/16 07:02:03;;;;;;;7.15;6.25;;;;;;;10.13;79.47;100033.55;1715658;81;21178;-45
2021/04/16 07:04:53;;;;;;;6.83;5.78;;;;;;;10.13;79.55;100035.76;1713887;81;21158;-44
2021/04/16 07:07:38;;;;;;;6.58;5.83;;;;;;;10.14;79.71;100031.28;1712345;81;21452;-42
2021/04/16 07:10:27;;;;;;;6.15;5.55;;;;;;;10.11;79.81;100036.81;1714369;81;21161;-44
2021/04/16 07:12:58;;;;;;;6.37;5.55;;;;;;;10.09;79.90;100033.38;1711252;81;21178;-42
2021/04/16 07:15:42;;;;;;;6.30;5.28;;;;;;;10.08;80.06;100034.31;1709623;81;21153;-44
2021/04/16 07:18:21;;;;;;;5.45;4.95;;;;;;;10.13;80.26;100035.76;1807199;78;23092;-44
2021/04/16 07:20:50;;;;;;;7.97;5.50;;;;;;;10.12;80.16;100042.02;1799998;78;21153;-42
2021/04/16 07:23:17;;;;;;;6.85;5.83;;;;;;;10.12;79.92;100037.18;1786734;78;21161;-46
2021/04/16 07:26:14;;;;;;;7.30;5.65;;;;;;;10.13;79.90;100040.20;1780562;78;21209;-45
2021/04/16 07:28:51;;;;;;;5.78;5.15;;;;;;;10.16;80.02;100041.38;1780851;78;21143;-54
2021/04/16 07:34:32;;;;;;;12.43;5.40;;;;;;;10.44;80.68;100038.30;1795036;78;23634;-47
2021/04/16 07:37:19;;;;;;;5.22;4.37;;;;;;;10.57;80.66;100045.87;1774329;79;21123;-45
2021/04/16 07:40:01;;;;;;;8.58;4.90;;;;;;;10.70;80.69;100040.09;1780327;79;21161;-44
2021/04/16 07:42:38;;;;;;;5.37;4.85;;;;;;;10.86;80.15;100040.41;1775354;79;21553;-45
2021/04/16 07:45:18;;;;;;;5.87;5.10;;;;;;;10.98;79.73;100046.27;1775379;79;21539;-44
2021/04/16 07:47:47;;;;;;;5.97;4.80;;;;;;;11.00;78.99;100042.54;1774365;79;21693;-45
2021/04/16 07:50:41;;;;;;;4.60;4.00;;;;;;;10.99;78.09;100046.18;1774558;79;21160;-45
2021/04/16 07:53:30;;;;;;;4.50;4.00;;;;;;;10.94;77.75;100050.13;1777841;79;21165;-46
2021/04/16 07:56:12;;;;;;;4.95;4.42;;;;;;;10.97;77.69;100045.42;1781955;79;22104;-46
2021/04/16 07:58:40;;;;;;;4.55;3.92;;;;;;;11.02;77.20;100049.12;1780600;79;21126;-46
2021/04/16 08:01:29;;;;;;;4.05;3.50;;;;;;;10.95;77.16;100055.33;1778588;79;21161;-47
2021/04/16 08:04:02;;;;;;;6.85;4.22;;;;;;;10.93;77.59;100055.91;1779654;79;21142;-46
2021/04/16 08:06:37;;;;;;;5.00;4.50;;;;;;;10.98;77.17;100056.45;1776237;79;22068;-46
2021/04/16 08:09:13;;;;;;;4.97;4.40;;;;;;;11.01;76.94;100055.39;1777075;79;21561;-45
2021/04/16 08:11:43;;;;;;;6.17;4.28;;;;;;;11.03;76.51;100056.16;1746961;80;21663;-48
2021/04/16 08:14:30;;;;;;;4.62;4.12;;;;;;;11.01;76.77;100053.61;1743095;80;21122;-47
2021/04/16 08:17:28;;;;;;;4.58;4.05;;;;;;;11.05;76.98;100056.42;1713670;82;21177;-48
2021/04/16 08:20:40;;;;;;;4.35;3.90;;;;;;;11.17;76.73;100057.42;1782372;78;23606;-46
2021/04/16 08:23:11;;;;;;;5.33;4.08;;;;;;;11.20;76.50;100061.70;1732163;80;21743;-48
2021/04/16 08:25:46;;;;;;;5.53;4.37;;;;;;;11.24;76.22;100058.72;1724998;80;21584;-47
2021/04/16 08:28:27;;;;;;;5.60;4.28;;;;;;;11.25;76.13;100062.24;1748352;80;21581;-48
2021/04/16 08:31:07;;;;;;;4.33;3.87;;;;;;;11.25;76.18;100057.75;1745967;80;21193;-47
2021/04/16 08:34:24;;;;;;;;;;;;;;;;;;;;;
2021/04/16 08:37:21;;;;;;;7.42;4.72;;;;;;;11.25;76.00;100060.91;1645746;84;21131;-49
2021/04/16 08:39:50;;;;;;;6.47;5.17;;;;;;;11.24;75.92;100057.87;1633537;85;21186;-46
2021/04/16 08:42:28;;;;;;;6.42;4.87;;;;;;;11.22;75.94;100061.13;1630397;85;21692;-46
2021/04/16 08:45:17;;;;;;;7.53;4.85;;;;;;;11.25;76.09;100056.42;1801190;77;22863;-46
2021/04/16 08:47:59;;;;;;;14.18;8.38;;;;;;;11.23;76.10;100062.82;1722040;81;21540;-46
2021/04/16 08:50:31;;;;;;;5.53;5.03;;;;;;;11.25;76.18;100062.24;1716322;81;21523;-46
2021/04/16 08:53:01;;;;;;;6.83;5.42;;;;;;;11.25;76.24;100064.91;1717422;81;21156;-46
2021/04/16 08:55:34;;;;;;;5.28;4.78;;;;;;;11.22;76.15;100064.64;1738625;80;21894;-46
2021/04/16 08:58:32;;;;;;;5.03;4.50;;;;;;;11.23;76.01;100068.16;1721237;81;21124;-47
2021/04/16 09:01:12;;;;;;;5.67;5.05;;;;;;;11.24;75.98;100069.89;1718386;81;21176;-52
2021/04/16 09:03:48;;;;;;;5.50;5.00;;;;;;;11.21;76.01;100064.73;1717212;81;21173;-47
2021/04/16 09:06:35;;;;;;;6.17;5.20;;;;;;;11.18;75.82;100069.80;1722832;81;21143;-47
2021/04/16 09:09:07;;;;;;;5.75;5.17;;;;;;;11.18;75.79;100068.95;1714760;81;21296;-48
2021/04/16 09:11:49;;;;;;;6.67;5.85;;;;;;;11.25;76.04;100072.43;1713698;81;21119;-47
2021/04/16 09:14:32;;;;;;;5.53;4.78;;;;;;;11.31;76.09;100069.81;1719552;81;21157;-44
2021/04/16 09:17:06;;;;;;;6.10;5.35;;;;;;;11.32;75.59;100069.37;1613704;87;21759;-42
2021/04/16 09:19:55;;;;;;;5.03;4.53;;;;;;;11.29;75.44;100070.43;1611994;87;21499;-42
2021/04/16 09:22:42;;;;;;;5.45;4.65;;;;;;;11.25;75.49;100071.58;1586153;88;21197;-41
2021/04/16 09:25:50;;;;;;;5.42;4.92;;;;;;;11.19;75.62;100070.67;1584076;88;21193;-41
2021/04/16 09:28:27;;;;;;;4.97;4.47;;;;;;;11.13;75.63;100075.08;1617860;87;21229;-42
2021/04/16 09:30:58;;;;;;;4.67;4.25;;;;;;;11.08;75.40;100075.38;1609094;87;21215;-43
2021/04/16 09:33:42;;;;;;;5.17;4.67;;;;;;;11.03;75.40;100077.02;1581799;89;21304;-45
2021/04/16 09:36:22;;;;;;;5.28;4.55;;;;;;;11.02;75.78;100071.31;1639320;86;21569;-41
2021/04/16 09:39:15;;;;;;;5.22;4.50;;;;;;;11.05;75.99;100070.25;1757803;79;23111;-40
2021/04/16 09:41:45;;;;;;;5.20;4.62;;;;;;;11.01;76.24;100071.41;1732687;80;21149;-38
2021/04/16 09:44:32;;;;;;;4.95;4.45;;;;;;;10.98;76.03;100072.95;1733765;80;21126;-41
2021/04/16 09:47:04;;;;;;;6.12;5.53;;;;;;;10.93;76.04;100067.91;1733614;80;21149;-42
2021/04/16 09:49:55;;;;;;;5.22;4.72;;;;;;;10.87;76.27;100067.48;1732151;80;21158;-41
2021/04/16 09:52:41;;;;;;;4.95;4.45;;;;;;;10.79;76.63;100066.17;1734492;82;21169;-41
2021/04/16 09:55:52;;;;;;;4.17;3.77;;;;;;;10.78;77.22;100068.93;1735326;80;21666;-43
2021/04/16 09:58:42;;;;;;;4.83;3.77;;;;;;;10.78;77.69;100069.78;1735372;80;21142;-42
2021/04/16 10:01:13;;;;;;;5.17;4.47;;;;;;;10.82;77.89;100068.63;1736151;80;21368;-44
2021/04/16 10:03:50;;;;;;;4.78;3.95;;;;;;;10.85;77.78;100064.91;1738697;80;21140;-46
2021/04/16 10:06:35;;;;;;;5.30;3.97;;;;;;;10.83;78.04;100066.36;1734511;80;21104;-44
2021/04/16 10:09:21;;;;;;;4.53;3.62;;;;;;;10.82;78.22;100071.30;1736391;82;21145;-41
2021/04/16 10:12:03;;;;;;;5.90;3.40;;;;;;;10.81;78.51;100064.27;1735690;80;21153;-45
2021/04/16 10:14:33;;;;;;;4.65;4.05;;;;;;;10.85;78.43;100064.91;1734754;80;21181;-43
2021/04/16 10:17:07;;;;;;;4.33;3.67;;;;;;;10.90;78.25;100072.13;1733986;80;21581;-43
2021/04/16 10:19:44;;;;;;;4.20;3.80;;;;;;;10.94;78.10;100066.12;1726050;80;21146;-46
2021/04/16 10:22:24;;;;;;;6.85;4.70;;;;;;;10.97;77.95;100073.92;1709227;80;21137;-45
2021/04/16 10:34:30;;;;;;;6.60;6.00;;;;;;;11.07;77.79;100070.16;1762263;80;21125;-40
2021/04/16 11:16:30;;;;;;;6.90;6.20;;;;;;;10.85;77.87;100076.91;1786827;78;21148;-41
2021/04/16 12:39:12;;;;;;;6.55;5.85;;;;;;;10.68;79.14;100081.16;1685570;84;21180;-44
2021/04/16 12:41:41;;;;;;;;;;;;;;;10.68;79.09;100080.67;1678685;84;21513;-43
2021/04/16 12:44:20;;;;;;;7.15;5.58;;;;;;;10.72;79.37;100076.86;1682075;83;20200;-43
2021/04/16 12:46:48;;;;;;;8.00;6.65;;;;;;;10.76;79.69;100078.38;1617745;86;21260;-42
2021/04/16 12:49:16;;;;;;;7.95;6.42;;;;;;;10.74;79.88;100076.77;1636814;85;21216;-42
2021/04/16 12:51:43;;;;;;;8.45;6.22;;;;;;;10.70;79.99;100078.77;1635415;86;21175;-43
2021/04/16 12:54:11;;;;;;;8.88;6.53;;;;;;;10.66;79.75;100072.39;1638155;85;21335;-42
2021/04/16 12:56:41;;;;;;;7.78;6.47;;;;;;;10.63;80.02;100068.60;1616204;86;21221;-42
2021/04/16 12:59:17;;;;;;;8.27;6.43;;;;;;;10.59;80.32;100070.63;1611640;87;21344;-43
2021/04/16 13:01:45;;;;;;;8.95;6.72;;;;;;;10.55;80.72;100069.10;1639365;85;21310;-42
2021/04/16 13:04:14;;;;;;;6.90;6.17;;;;;;;10.51;81.16;100067.61;1652350;85;21233;-41
2021/04/16 13:06:43;;;;;;;7.10;6.22;;;;;;;10.50;81.36;100069.39;1620741;86;21642;-43
2021/04/16 13:09:14;;;;;;;7.25;6.15;;;;;;;10.52;81.49;100070.16;1672188;83;21224;-42
2021/04/16 13:11:42;;;;;;;;;;;;;;;10.53;81.64;100071.89;1655369;85;21212;-42
2021/04/16 13:14:09;;;;;;;6.08;5.45;;;;;;;10.54;81.69;100072.73;1632040;85;20308;-42
2021/04/16 13:16:37;;;;;;;6.70;5.90;;;;;;;10.57;81.69;100074.71;1628033;85;21782;-42
2021/04/16 13:19:08;;;;;;;6.70;6.00;;;;;;;10.60;81.64;100077.66;1633649;85;21367;-43
2021/04/16 13:21:38;;;;;;;;;;;;;;;10.60;81.64;100078.50;1630999;86;21479;-43
2021/04/16 13:24:07;;;;;;;9.00;6.92;;;;;;;10.60;81.66;100078.98;1661455;84;21194;-44
2021/04/16 13:26:36;;;;;;;7.17;6.47;;;;;;;10.61;81.72;100080.23;1685967;83;21145;-43
2021/04/16 13:29:04;;;;;;;9.05;6.03;;;;;;;10.64;81.79;100080.52;1680307;84;21324;-41
2021/04/16 13:31:34;;;;;;;8.18;6.17;;;;;;;10.59;81.87;100074.14;1680908;84;21175;-42
2021/04/16 13:34:03;;;;;;;7.35;6.58;;;;;;;10.55;82.05;100077.95;1677639;84;21188;-44
2021/04/16 13:36:31;;;;;;;7.85;6.62;;;;;;;10.54;82.16;100076.25;1678616;84;21212;-45
2021/04/16 13:38:59;;;;;;;9.15;7.60;;;;;;;10.55;82.25;100077.95;1680937;84;21158;-44
2021/04/16 13:41:28;;;;;;;10.25;6.92;;;;;;;10.54;82.27;100073.58;1678549;84;21170;-43
2021/04/16 13:43:56;;;;;;;9.85;7.58;;;;;;;10.54;82.27;100076.25;1701376;82;21217;-45
2021/04/16 13:46:26;;;;;;;12.00;8.38;;;;;;;10.51;82.28;100073.79;1700155;83;21153;-44
2021/04/16 13:48:54;;;;;;;8.60;7.25;;;;;;;10.52;82.29;100075.48;1674468;83;21664;-42
2021/04/16 13:51:24;;;;;;;11.63;8.35;;;;;;;10.53;82.17;100081.22;1697111;83;21602;-44
2021/04/16 13:53:52;;;;;;;8.33;7.45;;;;;;;10.56;82.18;100080.16;1678587;84;21730;-42
2021/04/16 13:56:21;;;;;;;8.55;7.62;;;;;;;10.56;82.00;100082.34;1680097;83;21232;-43
2021/04/16 13:58:50;;;;;;;9.68;8.28;;;;;;;10.56;81.94;100086.83;1676328;84;21178;-48
2021/04/16 14:01:18;;;;;;;9.90;7.60;;;;;;;10.55;81.93;100089.95;1677412;83;21632;-45
2021/04/16 14:03:53;;;;;;;7.17;6.47;;;;;;;10.54;82.00;100087.40;1678625;84;21158;-44
2021/04/16 14:06:25;;;;;;;9.55;8.05;;;;;;;10.53;81.98;100085.22;1673323;84;21185;-42
2021/04/16 14:09:00;;;;;;;8.35;7.35;;;;;;;10.53;81.98;100089.66;1656419;84;21628;-40
2021/04/16 14:11:31;;;;;;;9.18;8.05;;;;;;;10.54;81.90;100097.58;1673600;83;21165;-42